sensor_id;sensor_type;location;lat;lon;timestamp;temperature;humidity
17341;DHT22;8788;49.930;8.660;2023-05-07T00:01:43;17.30;99.90
17341;DHT22;8788;49.930;8.660;2023-05-07T00:04:10;17.30;99.90
17341;DHT22;8788;49.930;8.660;2023-05-07T00:06:39;17.30;99.90
17341;DHT22;8788;49.930;8.660;2023-05-07T00:09:06;17.30;99.90
17341;DHT22;8788;49.930;8.660;2023-05-07T00:11:33;17.30;99.90
17341;DHT22;8788;49.930;8.660;2023-05-07T00:14:00;17.40;99.90
17341;DHT22;8788;49.930;8.660;2023-05-07T00:16:29;17.40;99.90
17341;DHT22;8788;49.930;8.660;2023-05-07T00:18:56;17.40;99.90
17341;DHT22;8788;49.930;8.660;2023-05-07T00:21:23;17.40;99.90
17341;DHT22;8788;49.930;8.660;2023-05-07T00:23:52;17.40;99.90
17341;DHT22;8788;49.930;8.660;2023-05-07T00:26:19;17.30;99.90
17341;DHT22;8788;49.930;8.660;2023-05-07T00:28:49;17.30;99.90
17341;DHT22;8788;49.930;8.660;2023-05-07T00:31:16;17.20;99.90
17341;DHT22;8788;49.930;8.660;2023-05-07T00:33:44;17.10;99.90
17341;DHT22;8788;49.930;8.660;2023-05-07T00:36:12;17.10;99.90
17341;DHT22;8788;49.930;8.660;2023-05-07T00:38:39;17.00;99.90
17341;DHT22;8788;49.930;8.660;2023-05-07T00:41:06;17.00;99.90
17341;DHT22;8788;49.930;8.660;2023-05-07T00:43:33;17.00;99.90
17341;DHT22;8788;49.930;8.660;2023-05-07T00:46:00;17.00;99.90
17341;DHT22;8788;49.930;8.660;2023-05-07T00:48:28;17.00;99.90
17341;DHT22;8788;49.930;8.660;2023-05-07T00:50:56;17.00;99.90
17341;DHT22;8788;49.930;8.660;2023-05-07T00:53:24;17.00;99.90
17341;DHT22;8788;49.930;8.660;2023-05-07T00:55:52;17.00;99.90
17341;DHT22;8788;49.930;8.660;2023-05-07T00:58:20;17.00;99.90
17341;DHT22;8788;49.930;8.660;2023-05-07T01:00:47;17.10;99.90
17341;DHT22;8788;49.930;8.660;2023-05-07T01:03:15;17.20;99.90
17341;DHT22;8788;49.930;8.660;2023-05-07T01:05:43;17.10;99.90
17341;DHT22;8788;49.930;8.660;2023-05-07T01:08:13;17.00;99.90
17341;DHT22;8788;49.930;8.660;2023-05-07T01:10:41;17.00;99.90
17341;DHT22;8788;49.930;8.660;2023-05-07T01:13:09;16.90;99.90
17341;DHT22;8788;49.930;8.660;2023-05-07T01:15:37;17.00;99.90
17341;DHT22;8788;49.930;8.660;2023-05-07T01:18:06;17.00;99.90
17341;DHT22;8788;49.930;8.660;2023-05-07T01:21:16;17.10;99.90
17341;DHT22;8788;49.930;8.660;2023-05-07T01:23:46;17.00;99.90
17341;DHT22;8788;49.930;8.660;2023-05-07T01:26:13;17.00;99.90
17341;DHT22;8788;49.930;8.660;2023-05-07T01:28:44;17.00;99.90
17341;DHT22;8788;49.930;8.660;2023-05-07T01:31:12;17.10;99.90
17341;DHT22;8788;49.930;8.660;2023-05-07T01:33:41;17.10;99.90
17341;DHT22;8788;49.930;8.660;2023-05-07T01:36:10;17.20;99.90
17341;DHT22;8788;49.930;8.660;2023-05-07T01:38:39;17.10;99.90
17341;DHT22;8788;49.930;8.660;2023-05-07T01:41:09;17.10;99.90
17341;DHT22;8788;49.930;8.660;2023-05-07T01:43:36;17.10;99.90
17341;DHT22;8788;49.930;8.660;2023-05-07T01:46:03;17.10;99.90
17341;DHT22;8788;49.930;8.660;2023-05-07T01:48:32;17.10;99.90
17341;DHT22;8788;49.930;8.660;2023-05-07T01:50:59;17.00;99.90
17341;DHT22;8788;49.930;8.660;2023-05-07T01:53:27;16.90;99.90
17341;DHT22;8788;49.930;8.660;2023-05-07T01:55:54;16.90;99.90
17341;DHT22;8788;49.930;8.660;2023-05-07T01:58:23;16.90;99.90
17341;DHT22;8788;49.930;8.660;2023-05-07T02:00:50;16.90;99.90
17341;DHT22;8788;49.930;8.660;2023-05-07T02:03:18;16.90;99.90
17341;DHT22;8788;49.930;8.660;2023-05-07T02:05:53;16.90;99.90
17341;DHT22;8788;49.930;8.660;2023-05-07T02:08:30;16.80;99.90
17341;DHT22;8788;49.930;8.660;2023-05-07T02:10:58;16.80;99.90
17341;DHT22;8788;49.930;8.660;2023-05-07T02:13:28;16.80;99.90
17341;DHT22;8788;49.930;8.660;2023-05-07T02:15:55;16.90;99.90
17341;DHT22;8788;49.930;8.660;2023-05-07T02:18:24;16.80;99.90
17341;DHT22;8788;49.930;8.660;2023-05-07T02:20:51;16.90;99.90
17341;DHT22;8788;49.930;8.660;2023-05-07T02:23:18;16.80;99.90
17341;DHT22;8788;49.930;8.660;2023-05-07T02:25:45;16.80;99.90
17341;DHT22;8788;49.930;8.660;2023-05-07T02:28:12;16.80;99.90
17341;DHT22;8788;49.930;8.660;2023-05-07T02:30:49;16.80;99.90
17341;DHT22;8788;49.930;8.660;2023-05-07T02:33:16;16.70;99.90
17341;DHT22;8788;49.930;8.660;2023-05-07T02:35:43;16.60;99.90
17341;DHT22;8788;49.930;8.660;2023-05-07T02:38:12;16.70;99.90
17341;DHT22;8788;49.930;8.660;2023-05-07T02:40:40;16.60;99.90
17341;DHT22;8788;49.930;8.660;2023-05-07T02:43:08;16.60;99.90
17341;DHT22;8788;49.930;8.660;2023-05-07T02:45:36;16.70;99.90
17341;DHT22;8788;49.930;8.660;2023-05-07T02:48:06;16.70;99.90
17341;DHT22;8788;49.930;8.660;2023-05-07T02:50:33;16.80;99.90
17341;DHT22;8788;49.930;8.660;2023-05-07T02:53:01;16.70;99.90
17341;DHT22;8788;49.930;8.660;2023-05-07T02:55:28;16.70;99.90
17341;DHT22;8788;49.930;8.660;2023-05-07T02:57:55;16.70;99.90
17341;DHT22;8788;49.930;8.660;2023-05-07T03:00:23;16.70;99.90
17341;DHT22;8788;49.930;8.660;2023-05-07T03:03:12;16.70;99.90
17341;DHT22;8788;49.930;8.660;2023-05-07T03:05:39;16.70;99.90
17341;DHT22;8788;49.930;8.660;2023-05-07T03:08:06;16.70;99.90
17341;DHT22;8788;49.930;8.660;2023-05-07T03:10:33;16.70;99.90
17341;DHT22;8788;49.930;8.660;2023-05-07T03:13:01;16.70;99.90
17341;DHT22;8788;49.930;8.660;2023-05-07T03:15:28;16.70;99.90
17341;DHT22;8788;49.930;8.660;2023-05-07T03:17:56;16.70;99.90
17341;DHT22;8788;49.930;8.660;2023-05-07T03:20:24;16.70;99.90
17341;DHT22;8788;49.930;8.660;2023-05-07T03:22:52;16.70;99.90
17341;DHT22;8788;49.930;8.660;2023-05-07T03:25:19;16.70;99.90
17341;DHT22;8788;49.930;8.660;2023-05-07T03:27:46;16.70;99.90
17341;DHT22;8788;49.930;8.660;2023-05-07T03:30:13;16.70;99.90
17341;DHT22;8788;49.930;8.660;2023-05-07T03:32:40;16.80;99.90
17341;DHT22;8788;49.930;8.660;2023-05-07T03:35:10;16.80;99.90
17341;DHT22;8788;49.930;8.660;2023-05-07T03:37:40;16.80;99.90
17341;DHT22;8788;49.930;8.660;2023-05-07T03:40:08;16.70;99.90
17341;DHT22;8788;49.930;8.660;2023-05-07T03:42:44;16.70;99.90
17341;DHT22;8788;49.930;8.660;2023-05-07T03:45:12;16.80;99.90
17341;DHT22;8788;49.930;8.660;2023-05-07T03:47:44;16.80;99.90
17341;DHT22;8788;49.930;8.660;2023-05-07T03:50:15;16.80;99.90
17341;DHT22;8788;49.930;8.660;2023-05-07T03:52:44;16.70;99.90
17341;DHT22;8788;49.930;8.660;2023-05-07T03:55:12;16.80;99.90
17341;DHT22;8788;49.930;8.660;2023-05-07T03:57:45;16.80;99.90
17341;DHT22;8788;49.930;8.660;2023-05-07T04:00:13;16.80;99.90
17341;DHT22;8788;49.930;8.660;2023-05-07T04:02:46;16.80;99.90
17341;DHT22;8788;49.930;8.660;2023-05-07T04:05:16;16.80;99.90
17341;DHT22;8788;49.930;8.660;2023-05-07T04:07:47;16.80;99.90
17341;DHT22;8788;49.930;8.660;2023-05-07T04:10:18;16.80;99.90
17341;DHT22;8788;49.930;8.660;2023-05-07T04:12:47;16.80;99.90
17341;DHT22;8788;49.930;8.660;2023-05-07T04:15:18;16.80;99.90
17341;DHT22;8788;49.930;8.660;2023-05-07T04:17:46;16.80;99.90
17341;DHT22;8788;49.930;8.660;2023-05-07T04:20:16;16.80;99.90
17341;DHT22;8788;49.930;8.660;2023-05-07T04:22:48;16.80;99.90
17341;DHT22;8788;49.930;8.660;2023-05-07T04:25:16;16.80;99.90
17341;DHT22;8788;49.930;8.660;2023-05-07T04:27:43;16.80;99.90
17341;DHT22;8788;49.930;8.660;2023-05-07T04:30:12;16.80;99.90
17341;DHT22;8788;49.930;8.660;2023-05-07T04:32:39;16.80;99.90
17341;DHT22;8788;49.930;8.660;2023-05-07T04:35:07;16.90;99.90
17341;DHT22;8788;49.930;8.660;2023-05-07T04:37:34;16.80;99.90
17341;DHT22;8788;49.930;8.660;2023-05-07T04:40:04;16.80;99.90
17341;DHT22;8788;49.930;8.660;2023-05-07T04:42:31;16.80;99.90
17341;DHT22;8788;49.930;8.660;2023-05-07T04:45:01;16.80;99.90
17341;DHT22;8788;49.930;8.660;2023-05-07T04:47:31;16.80;99.90
17341;DHT22;8788;49.930;8.660;2023-05-07T04:50:01;16.80;99.90
17341;DHT22;8788;49.930;8.660;2023-05-07T04:52:28;16.80;99.90
17341;DHT22;8788;49.930;8.660;2023-05-07T04:54:55;16.80;99.90
17341;DHT22;8788;49.930;8.660;2023-05-07T04:57:23;16.80;99.90
17341;DHT22;8788;49.930;8.660;2023-05-07T04:59:51;16.80;99.90
17341;DHT22;8788;49.930;8.660;2023-05-07T05:02:18;16.80;99.90
17341;DHT22;8788;49.930;8.660;2023-05-07T05:04:45;16.80;99.90
17341;DHT22;8788;49.930;8.660;2023-05-07T05:07:12;16.80;99.90
17341;DHT22;8788;49.930;8.660;2023-05-07T05:09:40;16.90;99.90
17341;DHT22;8788;49.930;8.660;2023-05-07T05:12:07;16.90;99.90
17341;DHT22;8788;49.930;8.660;2023-05-07T05:14:38;17.00;99.90
17341;DHT22;8788;49.930;8.660;2023-05-07T05:17:06;16.90;99.90
17341;DHT22;8788;49.930;8.660;2023-05-07T05:19:35;16.90;99.90
17341;DHT22;8788;49.930;8.660;2023-05-07T05:22:02;16.90;99.90
17341;DHT22;8788;49.930;8.660;2023-05-07T05:24:30;16.90;99.90
17341;DHT22;8788;49.930;8.660;2023-05-07T05:26:58;16.90;99.90
17341;DHT22;8788;49.930;8.660;2023-05-07T05:29:28;16.90;99.90
17341;DHT22;8788;49.930;8.660;2023-05-07T05:31:58;17.00;99.90
17341;DHT22;8788;49.930;8.660;2023-05-07T05:34:27;16.90;99.90
17341;DHT22;8788;49.930;8.660;2023-05-07T05:36:55;17.00;99.90
17341;DHT22;8788;49.930;8.660;2023-05-07T05:39:22;16.90;99.90
17341;DHT22;8788;49.930;8.660;2023-05-07T05:41:49;16.90;99.90
17341;DHT22;8788;49.930;8.660;2023-05-07T05:44:16;16.90;99.90
17341;DHT22;8788;49.930;8.660;2023-05-07T05:46:44;17.00;99.90
17341;DHT22;8788;49.930;8.660;2023-05-07T05:49:12;17.00;99.90
17341;DHT22;8788;49.930;8.660;2023-05-07T05:51:40;17.10;99.90
17341;DHT22;8788;49.930;8.660;2023-05-07T05:54:07;17.10;99.90
17341;DHT22;8788;49.930;8.660;2023-05-07T05:56:34;17.10;99.90
17341;DHT22;8788;49.930;8.660;2023-05-07T05:59:01;17.10;99.90
17341;DHT22;8788;49.930;8.660;2023-05-07T06:01:29;17.10;99.90
17341;DHT22;8788;49.930;8.660;2023-05-07T06:03:59;17.10;99.90
17341;DHT22;8788;49.930;8.660;2023-05-07T06:06:28;17.20;99.90
17341;DHT22;8788;49.930;8.660;2023-05-07T06:08:57;17.20;99.90
17341;DHT22;8788;49.930;8.660;2023-05-07T06:11:31;17.40;99.90
17341;DHT22;8788;49.930;8.660;2023-05-07T06:13:59;17.50;99.90
17341;DHT22;8788;49.930;8.660;2023-05-07T06:16:27;17.50;99.90
17341;DHT22;8788;49.930;8.660;2023-05-07T06:18:54;17.50;99.90
17341;DHT22;8788;49.930;8.660;2023-05-07T06:21:21;17.40;99.90
17341;DHT22;8788;49.930;8.660;2023-05-07T06:23:49;17.40;99.90
17341;DHT22;8788;49.930;8.660;2023-05-07T06:26:18;17.40;99.90
17341;DHT22;8788;49.930;8.660;2023-05-07T06:28:47;17.50;99.90
17341;DHT22;8788;49.930;8.660;2023-05-07T06:31:16;17.60;99.90
17341;DHT22;8788;49.930;8.660;2023-05-07T06:33:52;17.70;99.90
17341;DHT22;8788;49.930;8.660;2023-05-07T06:36:21;17.80;99.90
17341;DHT22;8788;49.930;8.660;2023-05-07T06:38:50;17.80;99.90
17341;DHT22;8788;49.930;8.660;2023-05-07T06:41:17;17.80;99.90
17341;DHT22;8788;49.930;8.660;2023-05-07T06:43:44;17.80;99.90
17341;DHT22;8788;49.930;8.660;2023-05-07T06:46:43;17.80;99.90
17341;DHT22;8788;49.930;8.660;2023-05-07T06:49:11;17.90;99.90
17341;DHT22;8788;49.930;8.660;2023-05-07T06:51:39;17.90;99.90
17341;DHT22;8788;49.930;8.660;2023-05-07T06:54:07;17.90;99.90
17341;DHT22;8788;49.930;8.660;2023-05-07T06:56:37;17.90;99.90
17341;DHT22;8788;49.930;8.660;2023-05-07T06:59:05;18.00;99.90
17341;DHT22;8788;49.930;8.660;2023-05-07T07:01:36;18.10;99.90
17341;DHT22;8788;49.930;8.660;2023-05-07T07:04:04;18.10;99.90
17341;DHT22;8788;49.930;8.660;2023-05-07T07:06:32;18.20;99.90
17341;DHT22;8788;49.930;8.660;2023-05-07T07:09:01;18.30;99.90
17341;DHT22;8788;49.930;8.660;2023-05-07T07:11:31;18.40;99.90
17341;DHT22;8788;49.930;8.660;2023-05-07T07:13:59;18.50;99.90
17341;DHT22;8788;49.930;8.660;2023-05-07T07:16:29;18.60;99.90
17341;DHT22;8788;49.930;8.660;2023-05-07T07:18:56;18.60;99.90
17341;DHT22;8788;49.930;8.660;2023-05-07T07:21:23;18.70;99.90
17341;DHT22;8788;49.930;8.660;2023-05-07T07:23:51;18.70;99.90
17341;DHT22;8788;49.930;8.660;2023-05-07T07:26:19;18.70;99.90
17341;DHT22;8788;49.930;8.660;2023-05-07T07:28:49;18.70;99.90
17341;DHT22;8788;49.930;8.660;2023-05-07T07:31:19;18.70;99.90
17341;DHT22;8788;49.930;8.660;2023-05-07T07:33:48;18.80;99.90
17341;DHT22;8788;49.930;8.660;2023-05-07T07:36:16;18.80;99.90
17341;DHT22;8788;49.930;8.660;2023-05-07T07:38:43;18.80;99.90
17341;DHT22;8788;49.930;8.660;2023-05-07T07:41:10;18.80;99.90
17341;DHT22;8788;49.930;8.660;2023-05-07T07:43:37;18.70;99.90
17341;DHT22;8788;49.930;8.660;2023-05-07T07:46:06;18.80;99.90
17341;DHT22;8788;49.930;8.660;2023-05-07T07:48:33;18.80;99.90
17341;DHT22;8788;49.930;8.660;2023-05-07T07:51:00;18.80;99.90
17341;DHT22;8788;49.930;8.660;2023-05-07T07:53:28;18.90;99.90
17341;DHT22;8788;49.930;8.660;2023-05-07T07:55:56;18.90;99.90
17341;DHT22;8788;49.930;8.660;2023-05-07T07:58:26;19.00;99.90
17341;DHT22;8788;49.930;8.660;2023-05-07T08:00:53;19.00;99.90
17341;DHT22;8788;49.930;8.660;2023-05-07T08:03:23;19.10;99.90
17341;DHT22;8788;49.930;8.660;2023-05-07T08:05:54;19.20;99.90
17341;DHT22;8788;49.930;8.660;2023-05-07T08:08:21;19.20;99.90
17341;DHT22;8788;49.930;8.660;2023-05-07T08:10:49;19.20;99.90
17341;DHT22;8788;49.930;8.660;2023-05-07T08:13:23;19.20;99.90
17341;DHT22;8788;49.930;8.660;2023-05-07T08:15:51;19.20;99.90
17341;DHT22;8788;49.930;8.660;2023-05-07T08:18:18;19.20;99.90
17341;DHT22;8788;49.930;8.660;2023-05-07T08:20:47;19.20;99.90
17341;DHT22;8788;49.930;8.660;2023-05-07T08:23:18;19.20;99.90
17341;DHT22;8788;49.930;8.660;2023-05-07T08:25:46;19.20;99.90
17341;DHT22;8788;49.930;8.660;2023-05-07T08:28:13;19.30;99.90
17341;DHT22;8788;49.930;8.660;2023-05-07T08:30:41;19.40;99.90
17341;DHT22;8788;49.930;8.660;2023-05-07T08:33:08;19.50;99.90
17341;DHT22;8788;49.930;8.660;2023-05-07T08:35:36;19.50;99.90
17341;DHT22;8788;49.930;8.660;2023-05-07T08:38:07;19.50;99.90
17341;DHT22;8788;49.930;8.660;2023-05-07T08:40:37;19.60;99.90
17341;DHT22;8788;49.930;8.660;2023-05-07T08:43:07;19.70;99.90
17341;DHT22;8788;49.930;8.660;2023-05-07T08:45:39;19.70;99.90
17341;DHT22;8788;49.930;8.660;2023-05-07T08:48:10;19.70;99.90
17341;DHT22;8788;49.930;8.660;2023-05-07T08:50:41;19.80;99.90
17341;DHT22;8788;49.930;8.660;2023-05-07T08:53:12;19.90;99.90
17341;DHT22;8788;49.930;8.660;2023-05-07T08:55:39;20.00;99.90
17341;DHT22;8788;49.930;8.660;2023-05-07T08:58:06;20.10;99.90
17341;DHT22;8788;49.930;8.660;2023-05-07T09:00:38;20.20;99.90
17341;DHT22;8788;49.930;8.660;2023-05-07T09:03:06;20.20;99.90
17341;DHT22;8788;49.930;8.660;2023-05-07T09:05:34;20.30;99.90
17341;DHT22;8788;49.930;8.660;2023-05-07T09:08:03;20.30;99.90
17341;DHT22;8788;49.930;8.660;2023-05-07T09:10:33;20.40;99.90
17341;DHT22;8788;49.930;8.660;2023-05-07T09:13:02;20.40;99.90
17341;DHT22;8788;49.930;8.660;2023-05-07T09:15:30;20.50;99.90
17341;DHT22;8788;49.930;8.660;2023-05-07T09:18:00;20.50;99.90
17341;DHT22;8788;49.930;8.660;2023-05-07T09:20:30;20.70;99.90
17341;DHT22;8788;49.930;8.660;2023-05-07T09:22:58;20.80;99.90
17341;DHT22;8788;49.930;8.660;2023-05-07T09:25:30;20.90;99.90
17341;DHT22;8788;49.930;8.660;2023-05-07T09:28:02;21.00;99.90
17341;DHT22;8788;49.930;8.660;2023-05-07T09:30:30;21.10;99.90
17341;DHT22;8788;49.930;8.660;2023-05-07T09:33:01;21.20;99.90
17341;DHT22;8788;49.930;8.660;2023-05-07T09:35:29;21.30;99.90
17341;DHT22;8788;49.930;8.660;2023-05-07T09:38:01;21.40;99.90
17341;DHT22;8788;49.930;8.660;2023-05-07T09:40:30;21.40;99.90
17341;DHT22;8788;49.930;8.660;2023-05-07T09:43:13;21.40;99.90
17341;DHT22;8788;49.930;8.660;2023-05-07T09:45:53;21.50;99.90
17341;DHT22;8788;49.930;8.660;2023-05-07T09:48:25;21.60;99.90
17341;DHT22;8788;49.930;8.660;2023-05-07T09:50:55;21.60;99.90
17341;DHT22;8788;49.930;8.660;2023-05-07T09:53:27;21.70;99.90
17341;DHT22;8788;49.930;8.660;2023-05-07T09:55:57;21.80;99.90
17341;DHT22;8788;49.930;8.660;2023-05-07T09:58:26;21.90;99.90
17341;DHT22;8788;49.930;8.660;2023-05-07T10:00:54;22.00;99.90
17341;DHT22;8788;49.930;8.660;2023-05-07T10:03:22;22.00;99.90
17341;DHT22;8788;49.930;8.660;2023-05-07T10:05:55;22.20;99.90
17341;DHT22;8788;49.930;8.660;2023-05-07T10:08:23;22.30;99.90
17341;DHT22;8788;49.930;8.660;2023-05-07T10:10:54;22.40;99.90
17341;DHT22;8788;49.930;8.660;2023-05-07T10:13:25;22.50;99.90
17341;DHT22;8788;49.930;8.660;2023-05-07T10:15:55;22.60;99.90
17341;DHT22;8788;49.930;8.660;2023-05-07T10:18:26;22.80;99.90
17341;DHT22;8788;49.930;8.660;2023-05-07T10:21:04;22.80;99.90
17341;DHT22;8788;49.930;8.660;2023-05-07T10:23:34;22.90;99.90
17341;DHT22;8788;49.930;8.660;2023-05-07T10:26:04;22.80;99.90
17341;DHT22;8788;49.930;8.660;2023-05-07T10:28:37;22.90;99.90
17341;DHT22;8788;49.930;8.660;2023-05-07T10:31:27;22.90;99.90
17341;DHT22;8788;49.930;8.660;2023-05-07T10:34:01;22.90;99.90
17341;DHT22;8788;49.930;8.660;2023-05-07T10:36:34;22.90;99.90
17341;DHT22;8788;49.930;8.660;2023-05-07T10:39:02;23.00;99.90
17341;DHT22;8788;49.930;8.660;2023-05-07T10:41:29;23.00;99.90
17341;DHT22;8788;49.930;8.660;2023-05-07T10:43:58;23.00;99.90
17341;DHT22;8788;49.930;8.660;2023-05-07T10:46:29;23.20;99.90
17341;DHT22;8788;49.930;8.660;2023-05-07T10:49:10;23.30;99.90
17341;DHT22;8788;49.930;8.660;2023-05-07T10:52:16;23.50;99.90
17341;DHT22;8788;49.930;8.660;2023-05-07T10:55:20;23.70;99.90
17341;DHT22;8788;49.930;8.660;2023-05-07T10:58:23;23.70;99.90
17341;DHT22;8788;49.930;8.660;2023-05-07T11:00:58;23.80;99.90
17341;DHT22;8788;49.930;8.660;2023-05-07T11:03:31;23.80;99.90
17341;DHT22;8788;49.930;8.660;2023-05-07T11:06:10;23.90;99.90
17341;DHT22;8788;49.930;8.660;2023-05-07T11:09:00;24.10;99.90
17341;DHT22;8788;49.930;8.660;2023-05-07T11:11:44;24.40;99.90
17341;DHT22;8788;49.930;8.660;2023-05-07T11:14:43;24.60;99.90
17341;DHT22;8788;49.930;8.660;2023-05-07T11:17:15;24.70;99.90
17341;DHT22;8788;49.930;8.660;2023-05-07T11:19:48;24.80;99.90
17341;DHT22;8788;49.930;8.660;2023-05-07T11:22:36;24.80;99.90
17341;DHT22;8788;49.930;8.660;2023-05-07T11:25:25;25.00;99.60
17341;DHT22;8788;49.930;8.660;2023-05-07T11:28:10;25.10;99.50
17341;DHT22;8788;49.930;8.660;2023-05-07T11:30:42;25.20;99.00
17341;DHT22;8788;49.930;8.660;2023-05-07T11:33:17;25.30;98.60
17341;DHT22;8788;49.930;8.660;2023-05-07T11:35:47;25.40;97.80
17341;DHT22;8788;49.930;8.660;2023-05-07T11:38:17;25.40;97.40
17341;DHT22;8788;49.930;8.660;2023-05-07T11:40:51;25.50;97.20
17341;DHT22;8788;49.930;8.660;2023-05-07T11:43:18;25.40;97.10
17341;DHT22;8788;49.930;8.660;2023-05-07T11:45:46;25.40;97.00
17341;DHT22;8788;49.930;8.660;2023-05-07T11:48:15;25.30;96.50
17341;DHT22;8788;49.930;8.660;2023-05-07T11:50:50;25.30;96.40
17341;DHT22;8788;49.930;8.660;2023-05-07T11:53:18;25.30;96.30
17341;DHT22;8788;49.930;8.660;2023-05-07T11:55:45;25.30;96.30
17341;DHT22;8788;49.930;8.660;2023-05-07T11:58:20;25.30;96.30
17341;DHT22;8788;49.930;8.660;2023-05-07T12:00:48;25.30;96.60
17341;DHT22;8788;49.930;8.660;2023-05-07T12:03:17;25.40;95.90
17341;DHT22;8788;49.930;8.660;2023-05-07T12:05:45;25.40;95.90
17341;DHT22;8788;49.930;8.660;2023-05-07T12:08:14;25.50;95.70
17341;DHT22;8788;49.930;8.660;2023-05-07T12:10:41;25.50;95.70
17341;DHT22;8788;49.930;8.660;2023-05-07T12:13:14;25.60;95.20
17341;DHT22;8788;49.930;8.660;2023-05-07T12:15:42;25.70;94.90
17341;DHT22;8788;49.930;8.660;2023-05-07T12:18:10;25.70;94.70
17341;DHT22;8788;49.930;8.660;2023-05-07T12:20:39;25.80;94.30
17341;DHT22;8788;49.930;8.660;2023-05-07T12:23:06;25.90;94.30
17341;DHT22;8788;49.930;8.660;2023-05-07T12:25:34;25.90;94.00
17341;DHT22;8788;49.930;8.660;2023-05-07T12:28:02;26.00;94.00
17341;DHT22;8788;49.930;8.660;2023-05-07T12:30:30;26.00;93.50
17341;DHT22;8788;49.930;8.660;2023-05-07T12:32:57;26.00;93.50
17341;DHT22;8788;49.930;8.660;2023-05-07T12:35:28;26.10;93.30
17341;DHT22;8788;49.930;8.660;2023-05-07T12:37:57;26.10;93.40
17341;DHT22;8788;49.930;8.660;2023-05-07T12:40:35;26.10;93.70
17341;DHT22;8788;49.930;8.660;2023-05-07T12:43:02;26.40;93.50
17341;DHT22;8788;49.930;8.660;2023-05-07T12:45:29;26.40;93.10
17341;DHT22;8788;49.930;8.660;2023-05-07T12:48:00;26.40;92.60
17341;DHT22;8788;49.930;8.660;2023-05-07T12:50:31;26.50;92.30
17341;DHT22;8788;49.930;8.660;2023-05-07T12:52:59;26.50;91.80
17341;DHT22;8788;49.930;8.660;2023-05-07T12:55:29;26.60;91.60
17341;DHT22;8788;49.930;8.660;2023-05-07T12:57:56;26.70;91.20
17341;DHT22;8788;49.930;8.660;2023-05-07T13:00:34;26.60;90.90
17341;DHT22;8788;49.930;8.660;2023-05-07T13:03:01;26.60;90.60
17341;DHT22;8788;49.930;8.660;2023-05-07T13:05:29;26.60;90.30
17341;DHT22;8788;49.930;8.660;2023-05-07T13:07:56;26.50;90.20
17341;DHT22;8788;49.930;8.660;2023-05-07T13:10:25;26.50;90.00
17341;DHT22;8788;49.930;8.660;2023-05-07T13:12:52;26.40;88.40
17341;DHT22;8788;49.930;8.660;2023-05-07T13:15:19;26.30;87.30
17341;DHT22;8788;49.930;8.660;2023-05-07T13:17:46;26.20;86.10
17341;DHT22;8788;49.930;8.660;2023-05-07T13:20:13;26.00;85.20
17341;DHT22;8788;49.930;8.660;2023-05-07T13:22:41;26.00;85.40
17341;DHT22;8788;49.930;8.660;2023-05-07T13:25:08;26.10;85.80
17341;DHT22;8788;49.930;8.660;2023-05-07T13:27:37;26.10;85.70
17341;DHT22;8788;49.930;8.660;2023-05-07T13:30:05;26.20;85.70
17341;DHT22;8788;49.930;8.660;2023-05-07T13:32:33;26.10;85.50
17341;DHT22;8788;49.930;8.660;2023-05-07T13:35:01;26.20;86.50
17341;DHT22;8788;49.930;8.660;2023-05-07T13:37:28;26.20;86.70
17341;DHT22;8788;49.930;8.660;2023-05-07T13:39:55;26.30;86.60
17341;DHT22;8788;49.930;8.660;2023-05-07T13:42:22;26.30;86.00
17341;DHT22;8788;49.930;8.660;2023-05-07T13:44:50;26.40;86.30
17341;DHT22;8788;49.930;8.660;2023-05-07T13:47:17;26.50;85.60
17341;DHT22;8788;49.930;8.660;2023-05-07T13:49:45;26.60;85.50
17341;DHT22;8788;49.930;8.660;2023-05-07T13:52:15;26.70;84.80
17341;DHT22;8788;49.930;8.660;2023-05-07T13:54:42;26.70;84.30
17341;DHT22;8788;49.930;8.660;2023-05-07T13:57:09;26.60;84.60
17341;DHT22;8788;49.930;8.660;2023-05-07T13:59:36;26.70;84.60
17341;DHT22;8788;49.930;8.660;2023-05-07T14:02:05;26.70;84.10
17341;DHT22;8788;49.930;8.660;2023-05-07T14:04:32;26.70;84.20
17341;DHT22;8788;49.930;8.660;2023-05-07T14:06:59;26.80;84.00
17341;DHT22;8788;49.930;8.660;2023-05-07T14:09:26;26.90;83.80
17341;DHT22;8788;49.930;8.660;2023-05-07T14:11:53;26.90;82.10
17341;DHT22;8788;49.930;8.660;2023-05-07T14:14:20;26.70;80.30
17341;DHT22;8788;49.930;8.660;2023-05-07T14:16:47;26.60;80.10
17341;DHT22;8788;49.930;8.660;2023-05-07T14:19:16;26.60;79.80
17341;DHT22;8788;49.930;8.660;2023-05-07T14:21:43;26.60;79.30
17341;DHT22;8788;49.930;8.660;2023-05-07T14:24:10;26.60;79.50
17341;DHT22;8788;49.930;8.660;2023-05-07T14:26:37;26.50;78.60
17341;DHT22;8788;49.930;8.660;2023-05-07T14:29:04;26.40;78.40
17341;DHT22;8788;49.930;8.660;2023-05-07T14:31:31;26.40;78.70
17341;DHT22;8788;49.930;8.660;2023-05-07T14:33:58;26.40;78.70
17341;DHT22;8788;49.930;8.660;2023-05-07T14:36:27;26.40;79.50
17341;DHT22;8788;49.930;8.660;2023-05-07T14:38:55;26.50;80.80
17341;DHT22;8788;49.930;8.660;2023-05-07T14:41:25;26.50;81.70
17341;DHT22;8788;49.930;8.660;2023-05-07T14:43:52;26.40;82.00
17341;DHT22;8788;49.930;8.660;2023-05-07T14:46:19;26.40;82.40
17341;DHT22;8788;49.930;8.660;2023-05-07T14:48:46;26.40;82.00
17341;DHT22;8788;49.930;8.660;2023-05-07T14:51:13;26.30;81.50
17341;DHT22;8788;49.930;8.660;2023-05-07T14:53:42;26.20;81.30
17341;DHT22;8788;49.930;8.660;2023-05-07T14:56:09;26.10;81.10
17341;DHT22;8788;49.930;8.660;2023-05-07T14:58:36;26.00;81.20
17341;DHT22;8788;49.930;8.660;2023-05-07T15:01:03;25.90;82.10
17341;DHT22;8788;49.930;8.660;2023-05-07T15:03:31;25.80;82.50
17341;DHT22;8788;49.930;8.660;2023-05-07T15:05:58;25.70;82.50
17341;DHT22;8788;49.930;8.660;2023-05-07T15:08:25;25.60;83.10
17341;DHT22;8788;49.930;8.660;2023-05-07T15:10:53;25.60;83.40
17341;DHT22;8788;49.930;8.660;2023-05-07T15:13:21;25.50;83.30
17341;DHT22;8788;49.930;8.660;2023-05-07T15:15:48;25.50;84.10
17341;DHT22;8788;49.930;8.660;2023-05-07T15:18:15;25.40;84.60
17341;DHT22;8788;49.930;8.660;2023-05-07T15:20:42;25.30;84.60
17341;DHT22;8788;49.930;8.660;2023-05-07T15:23:09;25.20;84.80
17341;DHT22;8788;49.930;8.660;2023-05-07T15:25:38;25.20;85.10
17341;DHT22;8788;49.930;8.660;2023-05-07T15:28:07;25.10;85.10
17341;DHT22;8788;49.930;8.660;2023-05-07T15:30:34;25.00;84.80
17341;DHT22;8788;49.930;8.660;2023-05-07T15:33:01;24.80;85.10
17341;DHT22;8788;49.930;8.660;2023-05-07T15:35:29;24.80;85.30
17341;DHT22;8788;49.930;8.660;2023-05-07T15:37:56;24.70;85.20
17341;DHT22;8788;49.930;8.660;2023-05-07T15:40:23;24.60;84.90
17341;DHT22;8788;49.930;8.660;2023-05-07T15:42:54;24.50;85.20
17341;DHT22;8788;49.930;8.660;2023-05-07T15:45:23;24.40;85.40
17341;DHT22;8788;49.930;8.660;2023-05-07T15:47:50;24.40;85.30
17341;DHT22;8788;49.930;8.660;2023-05-07T15:50:17;24.30;85.30
17341;DHT22;8788;49.930;8.660;2023-05-07T15:52:44;24.30;85.80
17341;DHT22;8788;49.930;8.660;2023-05-07T15:55:12;24.30;86.50
17341;DHT22;8788;49.930;8.660;2023-05-07T15:57:39;24.20;86.80
17341;DHT22;8788;49.930;8.660;2023-05-07T16:00:07;24.20;87.00